Tour Pomerol — 9HA2543 — position and weather

sailwx.info

Track history (hours):
 
Tides and Currents Weather Stations Pressure Air Temp Water Temp Dewpoint Dewpoint Depression Visibility Wind Speed Wind Dir Waves Ship Positions

Tour Pomerol

Last reported at 2018-Feb-24 16:10 UTC. Time now 2018-Feb-25 18:11 UTC.
Position N 35°59' W 005°14'.

Length 120 m; draft 8.1 m.

Type: Ship (hazmat cat B). MMSI: 248842000.

Date/timePositionNaut miles runAvg speedWind from/ knotsBaromVisibWave heightAir tempDewpointWater temp
2018-Feb-24 16:10N 35°59' W 005°14'214.9
2018-Feb-24 16:00N 35°59' W 005°17'714.8
2018-Feb-24 15:30N 35°58' W 005°26'23012.4
2018-Feb-23 20:56N 37°27' W 009°50'1613.4
2018-Feb-23 19:45N 37°42' W 009°55'413.7
2018-Feb-23 19:30N 37°45' W 009°56'713.7
2018-Feb-23 19:00N 37°52' W 009°57'713.6
2018-Feb-23 18:27N 37°59' W 009°59'1413.7
2018-Feb-23 17:27N 38°13' W 010°03'614.0
2018-Feb-23 17:00N 38°19' W 010°04'714.1
2018-Feb-23 16:30N 38°26' W 010°06'714.1
2018-Feb-23 16:00N 38°33' W 010°09'813.8
2018-Feb-23 15:26N 38°40' W 010°11'613.5
2018-Feb-23 15:00N 38°46' W 010°11'1013.7
2018-Feb-23 14:17N 38°56' W 010°12'414.2
2018-Feb-23 14:00N 38°60' W 010°12'56613.2
2018-Feb-21 19:00N 48°03' W 006°29'712.5
2018-Feb-21 18:27N 48°09' W 006°24'712.3
2018-Feb-21 17:50N 48°15' W 006°19'14512.8
2018-Feb-21 06:29N 49°48' W 003°28'714.0
2018-Feb-21 06:00N 49°51' W 003°19'714.8
2018-Feb-21 05:30N 49°55' W 003°09'715.4
2018-Feb-21 05:00N 49°59' W 002°59'815.9
2018-Feb-21 04:30N 50°01' W 002°47'816.2
2018-Feb-21 04:00N 50°04' W 002°35'1815.8
2018-Feb-21 02:52N 50°09' W 002°08'1114.3
2018-Feb-21 02:05N 50°12' W 001°52'113.7
2018-Feb-21 02:00N 50°12' W 001°50'613.1
2018-Feb-21 01:31N 50°14' W 001°40'4311.0
2018-Feb-20 21:39N 50°25' W 000°36'312.5
2018-Feb-20 21:22N 50°26' W 000°30'512.7
2018-Feb-20 20:58N 50°27' W 000°23'613.6
2018-Feb-20 20:31N 50°29' W 000°13'714.3
2018-Feb-20 20:00N 50°31' W 000°02'714.7
2018-Feb-20 19:31N 50°33' E 000°09'815.0
2018-Feb-20 19:01N 50°35' E 000°20'815.0
2018-Feb-20 18:30N 50°37' E 000°31'714.6
2018-Feb-20 18:01N 50°41' E 000°41'714.3
2018-Feb-20 17:31N 50°45' E 000°50'713.7
2018-Feb-20 16:59N 50°49' E 000°59'713.4
2018-Feb-20 16:30N 50°54' E 001°07'612.2
2018-Feb-20 15:59N 50°58' E 001°15'611.3
2018-Feb-20 15:30N 51°01' E 001°22'510.8
2018-Feb-20 15:00N 51°04' E 001°29'510.5
2018-Feb-20 14:30N 51°08' E 001°35'510.8
2018-Feb-20 14:00N 51°12' E 001°41'611.5
2018-Feb-20 13:30N 51°16' E 001°47'713.1
2018-Feb-20 13:00N 51°22' E 001°52'714.2
2018-Feb-20 12:30N 51°27' E 001°59'815.2
2018-Feb-20 12:01N 51°33' E 002°07'815.2
2018-Feb-20 11:29N 51°39' E 002°16'3314.8
2018-Feb-20 09:15N 52°02' E 002°54'314.0
2018-Feb-20 09:00N 52°02' E 002°60'714.0
2018-Feb-20 08:28N 52°03' E 003°12'713.8
2018-Feb-20 08:00N 52°03' E 003°22'813.6
2018-Feb-20 07:27N 52°03' E 003°34'613.4
2018-Feb-20 07:00N 52°03' E 003°44'612.7
2018-Feb-20 06:30N 52°02' E 003°54'611.1
2018-Feb-20 06:00N 51°60' E 004°02'611.0
2018-Feb-20 05:30N 51°57' E 004°10'3 5.3
2018-Feb-20 04:59N 51°55' E 004°13'0 0.0
2018-Feb-20 04:29N 51°55' E 004°13'0 0.0
2018-Feb-20 03:44N 51°55' E 004°13'0 0.0
2018-Feb-20 03:26N 51°55' E 004°13'0 0.0
2018-Feb-20 02:56N 51°55' E 004°13'0 0.0
2018-Feb-20 02:29N 51°55' E 004°13'0 0.0
2018-Feb-20 01:56N 51°55' E 004°13'0 0.0
2018-Feb-20 01:29N 51°55' E 004°13'0 0.0
2018-Feb-20 00:47N 51°55' E 004°13'0 0.0
2018-Feb-20 00:26N 51°55' E 004°13'0 0.0
2018-Feb-19 23:59N 51°55' E 004°13'0 0.0
2018-Feb-19 23:29N 51°55' E 004°13'0 0.0
2018-Feb-19 22:59N 51°55' E 004°13'0 0.0
2018-Feb-19 22:26N 51°55' E 004°13'0 0.0
2018-Feb-19 21:59N 51°55' E 004°13'0 0.0
2018-Feb-19 21:20N 51°55' E 004°13'0 0.0
2018-Feb-19 20:50N 51°55' E 004°13'0 0.0
2018-Feb-19 20:20N 51°55' E 004°13'0 0.0
2018-Feb-19 19:41N 51°55' E 004°13'0 0.0
2018-Feb-19 19:29N 51°55' E 004°13'0 0.0
2018-Feb-19 18:56N 51°55' E 004°13'0 0.0
2018-Feb-19 18:29N 51°55' E 004°13'0 0.0
2018-Feb-19 17:53N 51°55' E 004°13'0 0.0
2018-Feb-19 17:26N 51°55' E 004°13'0 0.0
2018-Feb-19 16:59N 51°55' E 004°13'0 0.0
2018-Feb-19 16:29N 51°55' E 004°13'0 0.0
2018-Feb-19 15:59N 51°55' E 004°13'0 0.0
2018-Feb-19 15:26N 51°55' E 004°13'0 0.0
2018-Feb-19 14:59N 51°55' E 004°13'0 0.0
2018-Feb-19 14:20N 51°55' E 004°13'0 0.0
2018-Feb-19 13:56N 51°55' E 004°13'0 0.0
2018-Feb-19 13:08N 51°55' E 004°13'0 0.0
2018-Feb-19 12:59N 51°55' E 004°13'0 0.0
2018-Feb-19 12:29N 51°55' E 004°13'0 0.0
2018-Feb-19 11:41N 51°55' E 004°13'0 0.0
2018-Feb-19 11:29N 51°55' E 004°13'0 0.0
2018-Feb-19 10:56N 51°55' E 004°13'0 0.0
2018-Feb-19 10:23N 51°55' E 004°13'0 0.0
2018-Feb-19 09:50N 51°55' E 004°13'0 0.0
2018-Feb-19 09:29N 51°55' E 004°13'0 0.0
2018-Feb-19 08:59N 51°55' E 004°13'0 0.0
2018-Feb-19 08:17N 51°55' E 004°13'0 0.0
2018-Feb-19 07:47N 51°55' E 004°13'0 0.0
2018-Feb-19 07:26N 51°55' E 004°13'0 0.0
2018-Feb-19 06:41N 51°55' E 004°13'0 0.0
2018-Feb-19 06:29N 51°55' E 004°13'0 0.0
2018-Feb-19 05:53N 51°55' E 004°13'0 0.0
2018-Feb-19 05:26N 51°55' E 004°13'0 0.0
2018-Feb-19 04:59N 51°55' E 004°13'0 0.0
2018-Feb-19 04:29N 51°55' E 004°13'0 0.0
2018-Feb-19 03:56N 51°55' E 004°13'0 0.0
2018-Feb-19 03:29N 51°55' E 004°13'0 0.0
2018-Feb-19 02:59N 51°55' E 004°13'0 0.0
2018-Feb-19 02:29N 51°55' E 004°13'0 0.0
2018-Feb-19 01:47N 51°55' E 004°13'0 0.0
2018-Feb-19 01:23N 51°55' E 004°13'0 0.0
2018-Feb-19 00:56N 51°55' E 004°13'0 0.0
2018-Feb-19 00:23N 51°55' E 004°13'0 0.0
2018-Feb-18 23:56N 51°55' E 004°13'0 0.0
2018-Feb-18 23:29N 51°55' E 004°13'0 0.0
2018-Feb-18 23:00N 51°55' E 004°13'0 0.6
2018-Feb-18 22:30N 51°55' E 004°13'4 8.6
2018-Feb-18 22:00N 51°58' E 004°07'613.0
2018-Feb-18 21:30N 51°60' E 003°57'612.1
2018-Feb-18 21:00N 51°59' E 003°48'4 5.6
2018-Feb-18 20:22N 51°57' E 003°43'0 0.0
2018-Feb-18 19:58N 51°57' E 003°43'0 0.0
2018-Feb-18 19:10N 51°57' E 003°43'0 0.0
2018-Feb-18 18:58N 51°57' E 003°43'0 0.0
2018-Feb-18 18:28N 51°57' E 003°44'0 0.0
2018-Feb-18 17:55N 51°57' E 003°44'0 0.0
2018-Feb-18 17:25N 51°57' E 003°44'0 0.0
2018-Feb-18 16:58N 51°57' E 003°44'0 0.0
2018-Feb-18 16:28N 51°57' E 003°44'0 0.0
2018-Feb-18 15:55N 51°57' E 003°44'0 0.0
2018-Feb-18 15:28N 51°57' E 003°44'0 0.0
2018-Feb-18 14:58N 51°57' E 003°44'0 0.0
2018-Feb-18 14:28N 51°57' E 003°44'0 0.0
2018-Feb-18 13:58N 51°57' E 003°44'0 0.1
2018-Feb-18 13:28N 51°57' E 003°43'0 0.1
2018-Feb-18 12:52N 51°57' E 003°43'0 0.1
2018-Feb-18 12:28N 51°57' E 003°43'0 0.0
2018-Feb-18 11:46N 51°57' E 003°43'0 0.0
2018-Feb-18 11:25N 51°57' E 003°43'0 0.0
2018-Feb-18 10:58N 51°57' E 003°43'0 0.0
2018-Feb-18 10:28N 51°57' E 003°43'0 0.0
2018-Feb-18 09:58N 51°57' E 003°43'0 0.0
2018-Feb-18 09:28N 51°57' E 003°43'0 0.0
2018-Feb-18 08:58N 51°57' E 003°43'0 0.1
2018-Feb-18 08:22N 51°57' E 003°43'0 0.1
2018-Feb-18 07:58N 51°57' E 003°43'0 0.1
2018-Feb-18 07:28N 51°57' E 003°43'0 0.0
2018-Feb-18 06:58N 51°57' E 003°43'0 0.0
2018-Feb-18 06:28N 51°57' E 003°43'1 2.0
2018-Feb-18 06:00N 51°58' E 003°43'713.8
2018-Feb-18 05:30N 51°57' E 003°32'813.7
2018-Feb-18 04:55N 51°56' E 003°19'512.8
2018-Feb-18 04:30N 52°01' E 003°21'712.7
2018-Feb-18 03:58N 52°08' E 003°22'613.5
2018-Feb-18 03:30N 52°12' E 003°15'16412.9
2018-Feb-17 14:49N 54°43' E 005°02'614.3
2018-Feb-17 14:22N 54°49' E 005°07'514.2
2018-Feb-17 14:00N 54°53' E 005°11'714.1
2018-Feb-17 13:29N 54°60' E 005°17'23812.8
2018-Feb-16 18:53N 57°50' E 010°18'513.0
2018-Feb-16 18:30N 57°50' E 010°27'613.0
2018-Feb-16 18:00N 57°50' E 010°39'612.2
2018-Feb-16 17:30N 57°47' E 010°50'612.8
2018-Feb-16 17:00N 57°43' E 010°58'713.1
2018-Feb-16 16:30N 57°38' E 011°07'714.3
2018-Feb-16 16:00N 57°33' E 011°17'815.1
2018-Feb-16 15:30N 57°28' E 011°26'815.3
2018-Feb-16 15:01N 57°20' E 011°30'713.9
2018-Feb-16 14:30N 57°14' E 011°33'714.9
2018-Feb-16 14:01N 57°07' E 011°40'713.5
2018-Feb-16 13:30N 57°01' E 011°45'4 7.5
2018-Feb-16 12:59N 56°57' E 011°47'6512.4
2018-Feb-16 07:44N 56°03' E 010°39'314.1
2018-Feb-16 07:30N 56°04' E 010°34'713.7
2018-Feb-16 07:01N 56°07' E 010°23'611.1
2018-Feb-16 06:31N 56°10' E 010°14'1 1.6
2018-Feb-16 05:58N 56°09' E 010°13'0 0.0
2018-Feb-16 05:28N 56°09' E 010°13'0 0.0
2018-Feb-16 04:55N 56°09' E 010°13'0 0.0
2018-Feb-16 04:28N 56°09' E 010°13'0 0.0
2018-Feb-16 03:58N 56°09' E 010°13'0 0.0
2018-Feb-16 03:28N 56°09' E 010°13'0 0.0
2018-Feb-16 02:58N 56°09' E 010°13'0 0.0
2018-Feb-16 02:28N 56°09' E 010°13'0 0.0
2018-Feb-16 01:58N 56°09' E 010°13'0 0.0
2018-Feb-16 01:28N 56°09' E 010°13'0 0.0
2018-Feb-16 00:58N 56°09' E 010°13'0 0.0
2018-Feb-16 00:28N 56°09' E 010°13'0 0.0
2018-Feb-15 23:58N 56°09' E 010°13'0 0.0
2018-Feb-15 23:16N 56°09' E 010°13'0 0.0
2018-Feb-15 22:58N 56°09' E 010°13'0 0.0
2018-Feb-15 22:28N 56°09' E 010°13'0 0.0
2018-Feb-15 21:58N 56°09' E 010°13'0 0.0
2018-Feb-15 21:28N 56°09' E 010°13'0 0.0
2018-Feb-15 20:55N 56°09' E 010°13'0 0.0
2018-Feb-15 20:28N 56°09' E 010°13'0 0.0
2018-Feb-15 19:58N 56°09' E 010°13'0 0.0
2018-Feb-15 19:28N 56°09' E 010°13'0 0.0
2018-Feb-15 18:58N 56°09' E 010°13'0 0.0
2018-Feb-15 18:28N 56°09' E 010°13'0 0.0
2018-Feb-15 17:55N 56°09' E 010°13'0 0.0
2018-Feb-15 17:28N 56°09' E 010°13'0 0.0
2018-Feb-15 17:01N 56°09' E 010°13'1 2.4
2018-Feb-15 16:31N 56°10' E 010°15'3 5.5
2018-Feb-15 16:01N 56°08' E 010°19'2 4.9
2018-Feb-15 15:31N 56°08' E 010°23'510.4
2018-Feb-15 15:01N 56°05' E 010°31'5 9.4
2018-Feb-15 14:30N 56°05' E 010°40'7 7.9
2018-Feb-15 13:37N 56°11' E 010°46'1 9.3
2018-Feb-15 13:30N 56°12' E 010°47'42 9.9
2018-Feb-15 09:13N 56°40' E 011°46'3410.3
2018-Feb-15 05:55N 57°13' E 011°34'410.6
2018-Feb-15 05:30N 57°17' E 011°31'510.5
2018-Feb-15 05:00N 57°22' E 011°28'611.1
2018-Feb-15 04:31N 57°28' E 011°24'611.2
2018-Feb-15 04:01N 57°31' E 011°16'510.7
2018-Feb-15 03:30N 57°35' E 011°09'510.8
2018-Feb-15 03:01N 57°39' E 011°02'611.4
2018-Feb-15 02:31N 57°42' E 010°54'611.7
2018-Feb-15 02:01N 57°46' E 010°46'612.1
2018-Feb-15 01:30N 57°51' E 010°37'612.2
2018-Feb-15 01:01N 57°52' E 010°26'712.8
2018-Feb-15 00:27N 57°51' E 010°13'  
Track history (hours):
 
Tides and Currents Weather Stations Pressure Air Temp Water Temp Dewpoint Dewpoint Depression Visibility Wind Speed Wind Dir Waves Ship Positions

Tour Pomerol

Last reported at 2018-Feb-24 16:10 UTC. Time now 2018-Feb-25 18:11 UTC.
Position N 35°59' W 005°14'.

Length 120 m; draft 8.1 m.

Type: Ship (hazmat cat B). MMSI: 248842000.

Date/timePositionNaut miles runAvg speedWind from/ knotsBaromVisibWave heightAir tempDewpointWater temp
2018-Feb-24 16:10N 35°59' W 005°14'214.9
2018-Feb-24 16:00N 35°59' W 005°17'714.8
2018-Feb-24 15:30N 35°58' W 005°26'23012.4
2018-Feb-23 20:56N 37°27' W 009°50'1613.4
2018-Feb-23 19:45N 37°42' W 009°55'413.7
2018-Feb-23 19:30N 37°45' W 009°56'713.7
2018-Feb-23 19:00N 37°52' W 009°57'713.6
2018-Feb-23 18:27N 37°59' W 009°59'1413.7
2018-Feb-23 17:27N 38°13' W 010°03'614.0
2018-Feb-23 17:00N 38°19' W 010°04'714.1
2018-Feb-23 16:30N 38°26' W 010°06'714.1
2018-Feb-23 16:00N 38°33' W 010°09'813.8
2018-Feb-23 15:26N 38°40' W 010°11'613.5
2018-Feb-23 15:00N 38°46' W 010°11'1013.7
2018-Feb-23 14:17N 38°56' W 010°12'414.2
2018-Feb-23 14:00N 38°60' W 010°12'56613.2
2018-Feb-21 19:00N 48°03' W 006°29'712.5
2018-Feb-21 18:27N 48°09' W 006°24'712.3
2018-Feb-21 17:50N 48°15' W 006°19'14512.8
2018-Feb-21 06:29N 49°48' W 003°28'714.0
2018-Feb-21 06:00N 49°51' W 003°19'714.8
2018-Feb-21 05:30N 49°55' W 003°09'715.4
2018-Feb-21 05:00N 49°59' W 002°59'815.9
2018-Feb-21 04:30N 50°01' W 002°47'816.2
2018-Feb-21 04:00N 50°04' W 002°35'1815.8
2018-Feb-21 02:52N 50°09' W 002°08'1114.3
2018-Feb-21 02:05N 50°12' W 001°52'113.7
2018-Feb-21 02:00N 50°12' W 001°50'613.1
2018-Feb-21 01:31N 50°14' W 001°40'4311.0
2018-Feb-20 21:39N 50°25' W 000°36'312.5
2018-Feb-20 21:22N 50°26' W 000°30'512.7
2018-Feb-20 20:58N 50°27' W 000°23'613.6
2018-Feb-20 20:31N 50°29' W 000°13'714.3
2018-Feb-20 20:00N 50°31' W 000°02'714.7
2018-Feb-20 19:31N 50°33' E 000°09'815.0
2018-Feb-20 19:01N 50°35' E 000°20'815.0
2018-Feb-20 18:30N 50°37' E 000°31'714.6
2018-Feb-20 18:01N 50°41' E 000°41'714.3
2018-Feb-20 17:31N 50°45' E 000°50'713.7
2018-Feb-20 16:59N 50°49' E 000°59'713.4
2018-Feb-20 16:30N 50°54' E 001°07'612.2
2018-Feb-20 15:59N 50°58' E 001°15'611.3
2018-Feb-20 15:30N 51°01' E 001°22'510.8
2018-Feb-20 15:00N 51°04' E 001°29'510.5
2018-Feb-20 14:30N 51°08' E 001°35'510.8
2018-Feb-20 14:00N 51°12' E 001°41'611.5
2018-Feb-20 13:30N 51°16' E 001°47'713.1
2018-Feb-20 13:00N 51°22' E 001°52'714.2
2018-Feb-20 12:30N 51°27' E 001°59'815.2
2018-Feb-20 12:01N 51°33' E 002°07'815.2
2018-Feb-20 11:29N 51°39' E 002°16'3314.8
2018-Feb-20 09:15N 52°02' E 002°54'314.0
2018-Feb-20 09:00N 52°02' E 002°60'714.0
2018-Feb-20 08:28N 52°03' E 003°12'713.8
2018-Feb-20 08:00N 52°03' E 003°22'813.6
2018-Feb-20 07:27N 52°03' E 003°34'613.4
2018-Feb-20 07:00N 52°03' E 003°44'612.7
2018-Feb-20 06:30N 52°02' E 003°54'611.1
2018-Feb-20 06:00N 51°60' E 004°02'611.0
2018-Feb-20 05:30N 51°57' E 004°10'3 5.3
2018-Feb-20 04:59N 51°55' E 004°13'0 0.0
2018-Feb-20 04:29N 51°55' E 004°13'0 0.0
2018-Feb-20 03:44N 51°55' E 004°13'0 0.0
2018-Feb-20 03:26N 51°55' E 004°13'0 0.0
2018-Feb-20 02:56N 51°55' E 004°13'0 0.0
2018-Feb-20 02:29N 51°55' E 004°13'0 0.0
2018-Feb-20 01:56N 51°55' E 004°13'0 0.0
2018-Feb-20 01:29N 51°55' E 004°13'0 0.0
2018-Feb-20 00:47N 51°55' E 004°13'0 0.0
2018-Feb-20 00:26N 51°55' E 004°13'0 0.0
2018-Feb-19 23:59N 51°55' E 004°13'0 0.0
2018-Feb-19 23:29N 51°55' E 004°13'0 0.0
2018-Feb-19 22:59N 51°55' E 004°13'0 0.0
2018-Feb-19 22:26N 51°55' E 004°13'0 0.0
2018-Feb-19 21:59N 51°55' E 004°13'0 0.0
2018-Feb-19 21:20N 51°55' E 004°13'0 0.0
2018-Feb-19 20:50N 51°55' E 004°13'0 0.0
2018-Feb-19 20:20N 51°55' E 004°13'0 0.0
2018-Feb-19 19:41N 51°55' E 004°13'0 0.0
2018-Feb-19 19:29N 51°55' E 004°13'0 0.0
2018-Feb-19 18:56N 51°55' E 004°13'0 0.0
2018-Feb-19 18:29N 51°55' E 004°13'0 0.0
2018-Feb-19 17:53N 51°55' E 004°13'0 0.0
2018-Feb-19 17:26N 51°55' E 004°13'0 0.0
2018-Feb-19 16:59N 51°55' E 004°13'0 0.0
2018-Feb-19 16:29N 51°55' E 004°13'0 0.0
2018-Feb-19 15:59N 51°55' E 004°13'0 0.0
2018-Feb-19 15:26N 51°55' E 004°13'0 0.0
2018-Feb-19 14:59N 51°55' E 004°13'0 0.0
2018-Feb-19 14:20N 51°55' E 004°13'0 0.0
2018-Feb-19 13:56N 51°55' E 004°13'0 0.0
2018-Feb-19 13:08N 51°55' E 004°13'0 0.0
2018-Feb-19 12:59N 51°55' E 004°13'0 0.0
2018-Feb-19 12:29N 51°55' E 004°13'0 0.0
2018-Feb-19 11:41N 51°55' E 004°13'0 0.0
2018-Feb-19 11:29N 51°55' E 004°13'0 0.0
2018-Feb-19 10:56N 51°55' E 004°13'0 0.0
2018-Feb-19 10:23N 51°55' E 004°13'0 0.0
2018-Feb-19 09:50N 51°55' E 004°13'0 0.0
2018-Feb-19 09:29N 51°55' E 004°13'0 0.0
2018-Feb-19 08:59N 51°55' E 004°13'0 0.0
2018-Feb-19 08:17N 51°55' E 004°13'0 0.0
2018-Feb-19 07:47N 51°55' E 004°13'0 0.0
2018-Feb-19 07:26N 51°55' E 004°13'0 0.0
2018-Feb-19 06:41N 51°55' E 004°13'0 0.0
2018-Feb-19 06:29N 51°55' E 004°13'0 0.0
2018-Feb-19 05:53N 51°55' E 004°13'0 0.0
2018-Feb-19 05:26N 51°55' E 004°13'0 0.0
2018-Feb-19 04:59N 51°55' E 004°13'0 0.0
2018-Feb-19 04:29N 51°55' E 004°13'0 0.0
2018-Feb-19 03:56N 51°55' E 004°13'0 0.0
2018-Feb-19 03:29N 51°55' E 004°13'0 0.0
2018-Feb-19 02:59N 51°55' E 004°13'0 0.0
2018-Feb-19 02:29N 51°55' E 004°13'0 0.0
2018-Feb-19 01:47N 51°55' E 004°13'0 0.0
2018-Feb-19 01:23N 51°55' E 004°13'0 0.0
2018-Feb-19 00:56N 51°55' E 004°13'0 0.0
2018-Feb-19 00:23N 51°55' E 004°13'0 0.0
2018-Feb-18 23:56N 51°55' E 004°13'0 0.0
2018-Feb-18 23:29N 51°55' E 004°13'0 0.0
2018-Feb-18 23:00N 51°55' E 004°13'0 0.6
2018-Feb-18 22:30N 51°55' E 004°13'4 8.6
2018-Feb-18 22:00N 51°58' E 004°07'613.0
2018-Feb-18 21:30N 51°60' E 003°57'612.1
2018-Feb-18 21:00N 51°59' E 003°48'4 5.6
2018-Feb-18 20:22N 51°57' E 003°43'0 0.0
2018-Feb-18 19:58N 51°57' E 003°43'0 0.0
2018-Feb-18 19:10N 51°57' E 003°43'0 0.0
2018-Feb-18 18:58N 51°57' E 003°43'0 0.0
2018-Feb-18 18:28N 51°57' E 003°44'0 0.0
2018-Feb-18 17:55N 51°57' E 003°44'0 0.0
2018-Feb-18 17:25N 51°57' E 003°44'0 0.0
2018-Feb-18 16:58N 51°57' E 003°44'0 0.0
2018-Feb-18 16:28N 51°57' E 003°44'0 0.0
2018-Feb-18 15:55N 51°57' E 003°44'0 0.0
2018-Feb-18 15:28N 51°57' E 003°44'0 0.0
2018-Feb-18 14:58N 51°57' E 003°44'0 0.0
2018-Feb-18 14:28N 51°57' E 003°44'0 0.0
2018-Feb-18 13:58N 51°57' E 003°44'0 0.1
2018-Feb-18 13:28N 51°57' E 003°43'0 0.1
2018-Feb-18 12:52N 51°57' E 003°43'0 0.1
2018-Feb-18 12:28N 51°57' E 003°43'0 0.0
2018-Feb-18 11:46N 51°57' E 003°43'0 0.0
2018-Feb-18 11:25N 51°57' E 003°43'0 0.0
2018-Feb-18 10:58N 51°57' E 003°43'0 0.0
2018-Feb-18 10:28N 51°57' E 003°43'0 0.0
2018-Feb-18 09:58N 51°57' E 003°43'0 0.0
2018-Feb-18 09:28N 51°57' E 003°43'0 0.0
2018-Feb-18 08:58N 51°57' E 003°43'0 0.1
2018-Feb-18 08:22N 51°57' E 003°43'0 0.1
2018-Feb-18 07:58N 51°57' E 003°43'0 0.1
2018-Feb-18 07:28N 51°57' E 003°43'0 0.0
2018-Feb-18 06:58N 51°57' E 003°43'0 0.0
2018-Feb-18 06:28N 51°57' E 003°43'1 2.0
2018-Feb-18 06:00N 51°58' E 003°43'713.8
2018-Feb-18 05:30N 51°57' E 003°32'813.7
2018-Feb-18 04:55N 51°56' E 003°19'512.8
2018-Feb-18 04:30N 52°01' E 003°21'712.7
2018-Feb-18 03:58N 52°08' E 003°22'613.5
2018-Feb-18 03:30N 52°12' E 003°15'16412.9
2018-Feb-17 14:49N 54°43' E 005°02'614.3
2018-Feb-17 14:22N 54°49' E 005°07'514.2
2018-Feb-17 14:00N 54°53' E 005°11'714.1
2018-Feb-17 13:29N 54°60' E 005°17'23812.8
2018-Feb-16 18:53N 57°50' E 010°18'513.0
2018-Feb-16 18:30N 57°50' E 010°27'613.0
2018-Feb-16 18:00N 57°50' E 010°39'612.2
2018-Feb-16 17:30N 57°47' E 010°50'612.8
2018-Feb-16 17:00N 57°43' E 010°58'713.1
2018-Feb-16 16:30N 57°38' E 011°07'714.3
2018-Feb-16 16:00N 57°33' E 011°17'815.1
2018-Feb-16 15:30N 57°28' E 011°26'815.3
2018-Feb-16 15:01N 57°20' E 011°30'713.9
2018-Feb-16 14:30N 57°14' E 011°33'714.9
2018-Feb-16 14:01N 57°07' E 011°40'713.5
2018-Feb-16 13:30N 57°01' E 011°45'4 7.5
2018-Feb-16 12:59N 56°57' E 011°47'6512.4
2018-Feb-16 07:44N 56°03' E 010°39'314.1
2018-Feb-16 07:30N 56°04' E 010°34'713.7
2018-Feb-16 07:01N 56°07' E 010°23'611.1
2018-Feb-16 06:31N 56°10' E 010°14'1 1.6
2018-Feb-16 05:58N 56°09' E 010°13'0 0.0
2018-Feb-16 05:28N 56°09' E 010°13'0 0.0
2018-Feb-16 04:55N 56°09' E 010°13'0 0.0
2018-Feb-16 04:28N 56°09' E 010°13'0 0.0
2018-Feb-16 03:58N 56°09' E 010°13'0 0.0
2018-Feb-16 03:28N 56°09' E 010°13'0 0.0
2018-Feb-16 02:58N 56°09' E 010°13'0 0.0
2018-Feb-16 02:28N 56°09' E 010°13'0 0.0
2018-Feb-16 01:58N 56°09' E 010°13'0 0.0
2018-Feb-16 01:28N 56°09' E 010°13'0 0.0
2018-Feb-16 00:58N 56°09' E 010°13'0 0.0
2018-Feb-16 00:28N 56°09' E 010°13'0 0.0
2018-Feb-15 23:58N 56°09' E 010°13'0 0.0
2018-Feb-15 23:16N 56°09' E 010°13'0 0.0
2018-Feb-15 22:58N 56°09' E 010°13'0 0.0
2018-Feb-15 22:28N 56°09' E 010°13'0 0.0
2018-Feb-15 21:58N 56°09' E 010°13'0 0.0
2018-Feb-15 21:28N 56°09' E 010°13'0 0.0
2018-Feb-15 20:55N 56°09' E 010°13'0 0.0
2018-Feb-15 20:28N 56°09' E 010°13'0 0.0
2018-Feb-15 19:58N 56°09' E 010°13'0 0.0
2018-Feb-15 19:28N 56°09' E 010°13'0 0.0
2018-Feb-15 18:58N 56°09' E 010°13'0 0.0
2018-Feb-15 18:28N 56°09' E 010°13'0 0.0
2018-Feb-15 17:55N 56°09' E 010°13'0 0.0
2018-Feb-15 17:28N 56°09' E 010°13'0 0.0
2018-Feb-15 17:01N 56°09' E 010°13'1 2.4
2018-Feb-15 16:31N 56°10' E 010°15'3 5.5
2018-Feb-15 16:01N 56°08' E 010°19'2 4.9
2018-Feb-15 15:31N 56°08' E 010°23'510.4
2018-Feb-15 15:01N 56°05' E 010°31'5 9.4
2018-Feb-15 14:30N 56°05' E 010°40'7 7.9
2018-Feb-15 13:37N 56°11' E 010°46'1 9.3
2018-Feb-15 13:30N 56°12' E 010°47'42 9.9
2018-Feb-15 09:13N 56°40' E 011°46'3410.3
2018-Feb-15 05:55N 57°13' E 011°34'410.6
2018-Feb-15 05:30N 57°17' E 011°31'510.5
2018-Feb-15 05:00N 57°22' E 011°28'611.1
2018-Feb-15 04:31N 57°28' E 011°24'611.2
2018-Feb-15 04:01N 57°31' E 011°16'510.7
2018-Feb-15 03:30N 57°35' E 011°09'510.8
2018-Feb-15 03:01N 57°39' E 011°02'611.4
2018-Feb-15 02:31N 57°42' E 010°54'611.7
2018-Feb-15 02:01N 57°46' E 010°46'612.1
2018-Feb-15 01:30N 57°51' E 010°37'612.2
2018-Feb-15 01:01N 57°52' E 010°26'712.8
2018-Feb-15 00:27N 57°51' E 010°13'  

Dump ship's entire track history